Cambria, Iowa
Current Conditions -  °F | °C
As of 10:15 PM on Friday 19 Dec 2014 (Local Time) from KCNC Reporting Station
Unknown Precip Unknown Precip  
Wind Chill: 26°   Ceiling: 300
Heat Index: 32°   Visibility: 1.7mi
Dew Point: 32°   Wind: 6mph
Humidity: 100%   Direction: 160°SSE
Pressure: 30.19"   Gusts: NA
Location:  40.7685°N, 93.3285°W
Report Text: KCNC 200415Z AUTO 16005KT 1 3/4SM -UP OVC003 M00/M00 A3019 RMK AO2
Loading
Personal Weather Stations






























Interactive Weather Map New forecast layout! Learn more

10-Day Weather Forecast

Advertisements
Track Severe Weather on mobile